sensor_id;sensor_type;location;lat;lon;timestamp;P1;durP1;ratioP1;P2;durP2;ratioP2
35909;SDS011;22004;49.120;-0.200;2023-06-10T00:01:41;20.35;;;9.93;;
35909;SDS011;22004;49.120;-0.200;2023-06-10T00:04:08;20.38;;;9.60;;
35909;SDS011;22004;49.120;-0.200;2023-06-10T00:06:33;21.98;;;9.73;;
35909;SDS011;22004;49.120;-0.200;2023-06-10T00:09:03;16.67;;;9.52;;
35909;SDS011;22004;49.120;-0.200;2023-06-10T00:11:35;21.45;;;9.50;;
35909;SDS011;22004;49.120;-0.200;2023-06-10T00:14:02;22.73;;;10.60;;
35909;SDS011;22004;49.120;-0.200;2023-06-10T00:16:27;22.20;;;10.70;;
35909;SDS011;22004;49.120;-0.200;2023-06-10T00:18:53;18.48;;;9.75;;
35909;SDS011;22004;49.120;-0.200;2023-06-10T00:21:21;18.35;;;9.68;;
35909;SDS011;22004;49.120;-0.200;2023-06-10T00:23:47;18.58;;;9.70;;
35909;SDS011;22004;49.120;-0.200;2023-06-10T00:26:12;19.95;;;8.63;;
35909;SDS011;22004;49.120;-0.200;2023-06-10T00:28:37;18.35;;;10.15;;
35909;SDS011;22004;49.120;-0.200;2023-06-10T00:31:03;25.60;;;10.90;;
35909;SDS011;22004;49.120;-0.200;2023-06-10T00:33:29;15.70;;;9.43;;
35909;SDS011;22004;49.120;-0.200;2023-06-10T00:35:54;25.88;;;10.20;;
35909;SDS011;22004;49.120;-0.200;2023-06-10T00:38:20;19.40;;;9.43;;
35909;SDS011;22004;49.120;-0.200;2023-06-10T00:40:45;21.88;;;9.75;;
35909;SDS011;22004;49.120;-0.200;2023-06-10T00:43:10;18.38;;;9.75;;
35909;SDS011;22004;49.120;-0.200;2023-06-10T00:45:36;22.25;;;10.80;;
35909;SDS011;22004;49.120;-0.200;2023-06-10T00:48:01;25.63;;;11.73;;
35909;SDS011;22004;49.120;-0.200;2023-06-10T00:50:28;17.23;;;9.07;;
35909;SDS011;22004;49.120;-0.200;2023-06-10T00:52:54;17.48;;;9.90;;
35909;SDS011;22004;49.120;-0.200;2023-06-10T00:55:20;17.67;;;9.52;;
35909;SDS011;22004;49.120;-0.200;2023-06-10T00:57:46;17.13;;;9.40;;
35909;SDS011;22004;49.120;-0.200;2023-06-10T01:00:16;16.50;;;9.35;;
35909;SDS011;22004;49.120;-0.200;2023-06-10T01:02:42;21.17;;;9.77;;
35909;SDS011;22004;49.120;-0.200;2023-06-10T01:05:07;18.17;;;10.10;;
35909;SDS011;22004;49.120;-0.200;2023-06-10T01:10:05;16.88;;;9.93;;
35909;SDS011;22004;49.120;-0.200;2023-06-10T01:12:41;18.48;;;10.25;;
35909;SDS011;22004;49.120;-0.200;2023-06-10T01:15:14;17.70;;;9.63;;
35909;SDS011;22004;49.120;-0.200;2023-06-10T01:17:57;19.40;;;9.65;;
35909;SDS011;22004;49.120;-0.200;2023-06-10T01:20:24;30.65;;;11.00;;
35909;SDS011;22004;49.120;-0.200;2023-06-10T01:22:51;23.50;;;10.38;;
35909;SDS011;22004;49.120;-0.200;2023-06-10T01:25:19;22.60;;;11.02;;
35909;SDS011;22004;49.120;-0.200;2023-06-10T01:27:45;22.98;;;9.85;;
35909;SDS011;22004;49.120;-0.200;2023-06-10T01:30:15;24.48;;;11.00;;
35909;SDS011;22004;49.120;-0.200;2023-06-10T01:32:48;18.83;;;9.32;;
35909;SDS011;22004;49.120;-0.200;2023-06-10T01:35:16;24.33;;;10.82;;
35909;SDS011;22004;49.120;-0.200;2023-06-10T01:37:43;18.08;;;9.73;;
35909;SDS011;22004;49.120;-0.200;2023-06-10T01:40:11;27.00;;;11.55;;
35909;SDS011;22004;49.120;-0.200;2023-06-10T01:42:37;18.75;;;9.75;;
35909;SDS011;22004;49.120;-0.200;2023-06-10T01:45:03;35.10;;;11.98;;
35909;SDS011;22004;49.120;-0.200;2023-06-10T01:47:28;30.40;;;12.68;;
35909;SDS011;22004;49.120;-0.200;2023-06-10T01:49:54;27.83;;;11.10;;
35909;SDS011;22004;49.120;-0.200;2023-06-10T01:52:19;26.98;;;11.20;;
35909;SDS011;22004;49.120;-0.200;2023-06-10T01:54:45;25.75;;;11.27;;
35909;SDS011;22004;49.120;-0.200;2023-06-10T01:57:10;19.48;;;10.88;;
35909;SDS011;22004;49.120;-0.200;2023-06-10T01:59:35;24.90;;;10.23;;
35909;SDS011;22004;49.120;-0.200;2023-06-10T02:02:02;23.10;;;11.18;;
35909;SDS011;22004;49.120;-0.200;2023-06-10T02:04:28;25.27;;;11.52;;
35909;SDS011;22004;49.120;-0.200;2023-06-10T02:06:53;25.70;;;11.52;;
35909;SDS011;22004;49.120;-0.200;2023-06-10T02:09:20;25.05;;;11.73;;
35909;SDS011;22004;49.120;-0.200;2023-06-10T02:11:45;29.27;;;12.77;;
35909;SDS011;22004;49.120;-0.200;2023-06-10T02:14:11;22.88;;;10.65;;
35909;SDS011;22004;49.120;-0.200;2023-06-10T02:16:36;35.35;;;13.60;;
35909;SDS011;22004;49.120;-0.200;2023-06-10T02:19:02;23.27;;;10.75;;
35909;SDS011;22004;49.120;-0.200;2023-06-10T02:21:30;35.80;;;13.40;;
35909;SDS011;22004;49.120;-0.200;2023-06-10T02:23:56;35.13;;;14.82;;
35909;SDS011;22004;49.120;-0.200;2023-06-10T02:26:21;29.13;;;12.93;;
35909;SDS011;22004;49.120;-0.200;2023-06-10T02:28:48;23.95;;;10.52;;
35909;SDS011;22004;49.120;-0.200;2023-06-10T02:31:13;21.33;;;10.43;;
35909;SDS011;22004;49.120;-0.200;2023-06-10T02:33:39;24.00;;;11.52;;
35909;SDS011;22004;49.120;-0.200;2023-06-10T02:36:05;39.63;;;15.00;;
35909;SDS011;22004;49.120;-0.200;2023-06-10T02:38:31;32.75;;;11.93;;
35909;SDS011;22004;49.120;-0.200;2023-06-10T02:40:56;30.30;;;12.50;;
35909;SDS011;22004;49.120;-0.200;2023-06-10T02:43:21;26.17;;;11.77;;
35909;SDS011;22004;49.120;-0.200;2023-06-10T02:45:47;37.38;;;14.20;;
35909;SDS011;22004;49.120;-0.200;2023-06-10T02:48:12;26.90;;;12.02;;
35909;SDS011;22004;49.120;-0.200;2023-06-10T02:50:37;34.35;;;13.63;;
35909;SDS011;22004;49.120;-0.200;2023-06-10T02:53:05;21.17;;;11.30;;
35909;SDS011;22004;49.120;-0.200;2023-06-10T02:55:30;20.73;;;10.98;;
35909;SDS011;22004;49.120;-0.200;2023-06-10T02:57:55;20.70;;;10.73;;
35909;SDS011;22004;49.120;-0.200;2023-06-10T03:00:21;25.05;;;12.07;;
35909;SDS011;22004;49.120;-0.200;2023-06-10T03:02:47;18.50;;;10.70;;
35909;SDS011;22004;49.120;-0.200;2023-06-10T03:05:12;25.98;;;10.95;;
35909;SDS011;22004;49.120;-0.200;2023-06-10T03:07:39;24.15;;;11.30;;
35909;SDS011;22004;49.120;-0.200;2023-06-10T03:10:05;27.55;;;12.25;;
35909;SDS011;22004;49.120;-0.200;2023-06-10T03:12:31;29.73;;;12.45;;
35909;SDS011;22004;49.120;-0.200;2023-06-10T03:14:57;27.55;;;11.32;;
35909;SDS011;22004;49.120;-0.200;2023-06-10T03:17:22;21.00;;;11.20;;
35909;SDS011;22004;49.120;-0.200;2023-06-10T03:19:48;34.33;;;13.38;;
35909;SDS011;22004;49.120;-0.200;2023-06-10T03:22:14;31.50;;;13.52;;
35909;SDS011;22004;49.120;-0.200;2023-06-10T03:24:40;21.30;;;12.15;;
35909;SDS011;22004;49.120;-0.200;2023-06-10T03:27:09;36.92;;;14.25;;
35909;SDS011;22004;49.120;-0.200;2023-06-10T03:29:36;27.10;;;12.63;;
35909;SDS011;22004;49.120;-0.200;2023-06-10T03:32:02;31.48;;;12.85;;
35909;SDS011;22004;49.120;-0.200;2023-06-10T03:34:28;28.35;;;12.88;;
35909;SDS011;22004;49.120;-0.200;2023-06-10T03:36:53;20.55;;;9.90;;
35909;SDS011;22004;49.120;-0.200;2023-06-10T03:39:18;23.20;;;10.27;;
35909;SDS011;22004;49.120;-0.200;2023-06-10T03:41:44;20.58;;;10.70;;
35909;SDS011;22004;49.120;-0.200;2023-06-10T03:44:09;21.92;;;11.07;;
35909;SDS011;22004;49.120;-0.200;2023-06-10T03:46:34;26.95;;;11.00;;
35909;SDS011;22004;49.120;-0.200;2023-06-10T03:49:00;19.73;;;10.63;;
35909;SDS011;22004;49.120;-0.200;2023-06-10T03:51:26;23.40;;;11.02;;
35909;SDS011;22004;49.120;-0.200;2023-06-10T03:53:51;22.52;;;10.70;;
35909;SDS011;22004;49.120;-0.200;2023-06-10T03:56:17;19.02;;;10.70;;
35909;SDS011;22004;49.120;-0.200;2023-06-10T03:58:42;18.40;;;10.57;;
35909;SDS011;22004;49.120;-0.200;2023-06-10T04:01:07;19.65;;;10.40;;
35909;SDS011;22004;49.120;-0.200;2023-06-10T04:03:33;18.30;;;10.02;;
35909;SDS011;22004;49.120;-0.200;2023-06-10T04:05:58;19.42;;;10.15;;
35909;SDS011;22004;49.120;-0.200;2023-06-10T04:08:23;20.00;;;9.85;;
35909;SDS011;22004;49.120;-0.200;2023-06-10T04:10:49;36.50;;;13.27;;
35909;SDS011;22004;49.120;-0.200;2023-06-10T04:13:14;32.67;;;14.15;;
35909;SDS011;22004;49.120;-0.200;2023-06-10T04:15:40;26.92;;;12.77;;
35909;SDS011;22004;49.120;-0.200;2023-06-10T04:18:06;26.25;;;11.45;;
35909;SDS011;22004;49.120;-0.200;2023-06-10T04:20:31;27.35;;;12.15;;
35909;SDS011;22004;49.120;-0.200;2023-06-10T04:22:57;31.98;;;13.30;;
35909;SDS011;22004;49.120;-0.200;2023-06-10T04:25:22;20.98;;;11.35;;
35909;SDS011;22004;49.120;-0.200;2023-06-10T04:27:49;28.98;;;13.88;;
35909;SDS011;22004;49.120;-0.200;2023-06-10T04:30:15;40.15;;;13.77;;
35909;SDS011;22004;49.120;-0.200;2023-06-10T04:32:41;32.63;;;13.48;;
35909;SDS011;22004;49.120;-0.200;2023-06-10T04:35:07;20.98;;;10.25;;
35909;SDS011;22004;49.120;-0.200;2023-06-10T04:37:32;38.25;;;15.18;;
35909;SDS011;22004;49.120;-0.200;2023-06-10T04:39:58;32.83;;;13.43;;
35909;SDS011;22004;49.120;-0.200;2023-06-10T04:42:24;31.33;;;13.95;;
35909;SDS011;22004;49.120;-0.200;2023-06-10T04:44:49;31.02;;;13.40;;
35909;SDS011;22004;49.120;-0.200;2023-06-10T04:47:15;21.70;;;11.77;;
35909;SDS011;22004;49.120;-0.200;2023-06-10T04:49:42;27.02;;;11.88;;
35909;SDS011;22004;49.120;-0.200;2023-06-10T04:52:07;29.27;;;13.20;;
35909;SDS011;22004;49.120;-0.200;2023-06-10T04:54:32;26.33;;;11.98;;
35909;SDS011;22004;49.120;-0.200;2023-06-10T04:56:58;22.08;;;11.68;;
35909;SDS011;22004;49.120;-0.200;2023-06-10T04:59:24;49.63;;;14.20;;
35909;SDS011;22004;49.120;-0.200;2023-06-10T05:01:50;29.58;;;12.68;;
35909;SDS011;22004;49.120;-0.200;2023-06-10T05:04:15;36.33;;;13.48;;
35909;SDS011;22004;49.120;-0.200;2023-06-10T05:06:40;57.45;;;17.30;;
35909;SDS011;22004;49.120;-0.200;2023-06-10T05:09:06;55.67;;;16.98;;
35909;SDS011;22004;49.120;-0.200;2023-06-10T05:11:31;37.15;;;14.13;;
35909;SDS011;22004;49.120;-0.200;2023-06-10T05:13:56;34.45;;;13.57;;
35909;SDS011;22004;49.120;-0.200;2023-06-10T05:16:22;56.08;;;17.08;;
35909;SDS011;22004;49.120;-0.200;2023-06-10T05:18:47;49.25;;;16.10;;
35909;SDS011;22004;49.120;-0.200;2023-06-10T05:21:12;49.95;;;16.92;;
35909;SDS011;22004;49.120;-0.200;2023-06-10T05:23:37;51.65;;;17.30;;
35909;SDS011;22004;49.120;-0.200;2023-06-10T05:26:03;63.33;;;17.45;;
35909;SDS011;22004;49.120;-0.200;2023-06-10T05:28:28;53.83;;;17.00;;
35909;SDS011;22004;49.120;-0.200;2023-06-10T05:30:53;44.28;;;16.52;;
35909;SDS011;22004;49.120;-0.200;2023-06-10T05:33:19;42.30;;;14.85;;
35909;SDS011;22004;49.120;-0.200;2023-06-10T05:35:44;43.88;;;15.43;;
35909;SDS011;22004;49.120;-0.200;2023-06-10T05:38:10;44.92;;;17.10;;
35909;SDS011;22004;49.120;-0.200;2023-06-10T05:40:35;46.10;;;16.83;;
35909;SDS011;22004;49.120;-0.200;2023-06-10T05:43:00;32.13;;;14.00;;
35909;SDS011;22004;49.120;-0.200;2023-06-10T05:45:26;64.28;;;17.73;;
35909;SDS011;22004;49.120;-0.200;2023-06-10T05:47:52;50.28;;;17.13;;
35909;SDS011;22004;49.120;-0.200;2023-06-10T05:50:17;47.38;;;16.25;;
35909;SDS011;22004;49.120;-0.200;2023-06-10T05:52:43;58.70;;;17.73;;
35909;SDS011;22004;49.120;-0.200;2023-06-10T05:55:08;55.08;;;17.83;;
35909;SDS011;22004;49.120;-0.200;2023-06-10T05:57:34;50.60;;;16.95;;
35909;SDS011;22004;49.120;-0.200;2023-06-10T06:00:00;43.20;;;17.00;;
35909;SDS011;22004;49.120;-0.200;2023-06-10T06:02:25;49.28;;;16.90;;
35909;SDS011;22004;49.120;-0.200;2023-06-10T06:04:50;55.60;;;17.85;;
35909;SDS011;22004;49.120;-0.200;2023-06-10T06:07:16;47.58;;;17.70;;
35909;SDS011;22004;49.120;-0.200;2023-06-10T06:09:41;42.83;;;17.17;;
35909;SDS011;22004;49.120;-0.200;2023-06-10T06:12:07;41.95;;;17.40;;
35909;SDS011;22004;49.120;-0.200;2023-06-10T06:14:33;47.03;;;17.63;;
35909;SDS011;22004;49.120;-0.200;2023-06-10T06:17:02;56.50;;;17.80;;
35909;SDS011;22004;49.120;-0.200;2023-06-10T06:19:28;47.55;;;16.73;;
35909;SDS011;22004;49.120;-0.200;2023-06-10T06:21:53;46.88;;;15.25;;
35909;SDS011;22004;49.120;-0.200;2023-06-10T06:24:18;40.15;;;16.10;;
35909;SDS011;22004;49.120;-0.200;2023-06-10T06:26:44;54.45;;;17.25;;
35909;SDS011;22004;49.120;-0.200;2023-06-10T06:29:10;40.65;;;16.27;;
35909;SDS011;22004;49.120;-0.200;2023-06-10T06:31:35;33.83;;;15.63;;
35909;SDS011;22004;49.120;-0.200;2023-06-10T06:34:00;53.15;;;17.60;;
35909;SDS011;22004;49.120;-0.200;2023-06-10T06:36:26;47.47;;;16.63;;
35909;SDS011;22004;49.120;-0.200;2023-06-10T06:38:51;52.00;;;18.27;;
35909;SDS011;22004;49.120;-0.200;2023-06-10T06:41:16;52.15;;;16.63;;
35909;SDS011;22004;49.120;-0.200;2023-06-10T06:43:42;51.88;;;16.45;;
35909;SDS011;22004;49.120;-0.200;2023-06-10T06:46:08;42.97;;;16.17;;
35909;SDS011;22004;49.120;-0.200;2023-06-10T06:48:33;41.63;;;16.40;;
35909;SDS011;22004;49.120;-0.200;2023-06-10T06:50:59;40.35;;;16.13;;
35909;SDS011;22004;49.120;-0.200;2023-06-10T06:53:24;53.13;;;15.70;;
35909;SDS011;22004;49.120;-0.200;2023-06-10T06:55:50;40.33;;;15.02;;
35909;SDS011;22004;49.120;-0.200;2023-06-10T06:58:15;37.33;;;14.82;;
35909;SDS011;22004;49.120;-0.200;2023-06-10T07:00:40;41.83;;;15.10;;
35909;SDS011;22004;49.120;-0.200;2023-06-10T07:03:06;47.33;;;14.63;;
35909;SDS011;22004;49.120;-0.200;2023-06-10T07:05:31;41.53;;;15.23;;
35909;SDS011;22004;49.120;-0.200;2023-06-10T07:07:56;43.78;;;14.63;;
35909;SDS011;22004;49.120;-0.200;2023-06-10T07:10:22;47.25;;;13.98;;
35909;SDS011;22004;49.120;-0.200;2023-06-10T07:12:48;39.33;;;14.43;;
35909;SDS011;22004;49.120;-0.200;2023-06-10T07:15:14;37.75;;;14.02;;
35909;SDS011;22004;49.120;-0.200;2023-06-10T07:17:39;37.00;;;13.27;;
35909;SDS011;22004;49.120;-0.200;2023-06-10T07:20:05;44.30;;;15.05;;
35909;SDS011;22004;49.120;-0.200;2023-06-10T07:22:30;46.60;;;15.75;;
35909;SDS011;22004;49.120;-0.200;2023-06-10T07:24:56;43.13;;;15.23;;
35909;SDS011;22004;49.120;-0.200;2023-06-10T07:27:21;45.08;;;16.38;;
35909;SDS011;22004;49.120;-0.200;2023-06-10T07:29:47;46.55;;;14.98;;
35909;SDS011;22004;49.120;-0.200;2023-06-10T07:32:12;45.95;;;15.32;;
35909;SDS011;22004;49.120;-0.200;2023-06-10T07:34:37;48.05;;;16.00;;
35909;SDS011;22004;49.120;-0.200;2023-06-10T07:37:03;40.28;;;15.02;;
35909;SDS011;22004;49.120;-0.200;2023-06-10T07:39:28;49.63;;;13.85;;
35909;SDS011;22004;49.120;-0.200;2023-06-10T07:41:53;41.83;;;15.02;;
35909;SDS011;22004;49.120;-0.200;2023-06-10T07:44:21;38.42;;;14.75;;
35909;SDS011;22004;49.120;-0.200;2023-06-10T07:46:47;37.13;;;14.40;;
35909;SDS011;22004;49.120;-0.200;2023-06-10T07:49:12;47.75;;;14.80;;
35909;SDS011;22004;49.120;-0.200;2023-06-10T07:51:37;49.55;;;14.43;;
35909;SDS011;22004;49.120;-0.200;2023-06-10T07:54:03;44.10;;;15.50;;
35909;SDS011;22004;49.120;-0.200;2023-06-10T07:56:28;33.70;;;14.35;;
35909;SDS011;22004;49.120;-0.200;2023-06-10T07:58:53;43.10;;;14.82;;
35909;SDS011;22004;49.120;-0.200;2023-06-10T08:01:19;40.42;;;14.82;;
35909;SDS011;22004;49.120;-0.200;2023-06-10T08:03:44;37.63;;;14.90;;
35909;SDS011;22004;49.120;-0.200;2023-06-10T08:06:10;46.45;;;16.80;;
35909;SDS011;22004;49.120;-0.200;2023-06-10T08:08:36;47.80;;;15.68;;
35909;SDS011;22004;49.120;-0.200;2023-06-10T08:11:06;38.50;;;14.02;;
35909;SDS011;22004;49.120;-0.200;2023-06-10T08:13:32;37.42;;;13.75;;
35909;SDS011;22004;49.120;-0.200;2023-06-10T08:15:57;44.25;;;14.93;;
35909;SDS011;22004;49.120;-0.200;2023-06-10T08:18:23;37.35;;;14.23;;
35909;SDS011;22004;49.120;-0.200;2023-06-10T08:20:48;39.90;;;14.27;;
35909;SDS011;22004;49.120;-0.200;2023-06-10T08:23:14;33.35;;;14.30;;
35909;SDS011;22004;49.120;-0.200;2023-06-10T08:25:39;45.78;;;14.43;;
35909;SDS011;22004;49.120;-0.200;2023-06-10T08:28:05;43.13;;;13.75;;
35909;SDS011;22004;49.120;-0.200;2023-06-10T08:30:30;33.80;;;15.02;;
35909;SDS011;22004;49.120;-0.200;2023-06-10T08:32:55;41.22;;;15.55;;
35909;SDS011;22004;49.120;-0.200;2023-06-10T08:35:21;49.17;;;16.25;;
35909;SDS011;22004;49.120;-0.200;2023-06-10T08:37:47;40.80;;;14.75;;
35909;SDS011;22004;49.120;-0.200;2023-06-10T08:40:12;41.83;;;15.32;;
35909;SDS011;22004;49.120;-0.200;2023-06-10T08:42:39;43.10;;;14.85;;
35909;SDS011;22004;49.120;-0.200;2023-06-10T08:45:10;40.30;;;15.00;;
35909;SDS011;22004;49.120;-0.200;2023-06-10T08:47:42;42.95;;;14.48;;
35909;SDS011;22004;49.120;-0.200;2023-06-10T08:50:10;42.47;;;14.50;;
35909;SDS011;22004;49.120;-0.200;2023-06-10T08:52:36;37.92;;;15.10;;
35909;SDS011;22004;49.120;-0.200;2023-06-10T08:55:03;46.85;;;15.75;;
35909;SDS011;22004;49.120;-0.200;2023-06-10T08:57:35;43.17;;;15.48;;
35909;SDS011;22004;49.120;-0.200;2023-06-10T09:00:01;44.45;;;15.00;;
35909;SDS011;22004;49.120;-0.200;2023-06-10T09:02:28;42.22;;;16.33;;
35909;SDS011;22004;49.120;-0.200;2023-06-10T09:04:53;39.22;;;15.57;;
35909;SDS011;22004;49.120;-0.200;2023-06-10T09:07:21;42.05;;;15.40;;
35909;SDS011;22004;49.120;-0.200;2023-06-10T09:09:46;35.33;;;15.25;;
35909;SDS011;22004;49.120;-0.200;2023-06-10T09:12:14;38.63;;;14.77;;
35909;SDS011;22004;49.120;-0.200;2023-06-10T09:14:41;36.22;;;14.43;;
35909;SDS011;22004;49.120;-0.200;2023-06-10T09:17:09;41.80;;;14.40;;
35909;SDS011;22004;49.120;-0.200;2023-06-10T09:19:35;42.80;;;15.82;;
35909;SDS011;22004;49.120;-0.200;2023-06-10T09:22:03;38.78;;;14.68;;
35909;SDS011;22004;49.120;-0.200;2023-06-10T09:24:28;36.60;;;15.40;;
35909;SDS011;22004;49.120;-0.200;2023-06-10T09:27:01;36.67;;;14.70;;
35909;SDS011;22004;49.120;-0.200;2023-06-10T09:29:31;42.53;;;14.43;;
35909;SDS011;22004;49.120;-0.200;2023-06-10T09:32:16;40.30;;;15.82;;
35909;SDS011;22004;49.120;-0.200;2023-06-10T09:34:43;33.75;;;14.10;;
35909;SDS011;22004;49.120;-0.200;2023-06-10T09:37:08;45.35;;;16.23;;
35909;SDS011;22004;49.120;-0.200;2023-06-10T09:39:37;39.08;;;14.82;;
35909;SDS011;22004;49.120;-0.200;2023-06-10T09:42:11;38.42;;;14.55;;
35909;SDS011;22004;49.120;-0.200;2023-06-10T09:44:41;30.20;;;14.27;;
35909;SDS011;22004;49.120;-0.200;2023-06-10T09:47:06;38.60;;;14.82;;
35909;SDS011;22004;49.120;-0.200;2023-06-10T09:49:32;37.83;;;14.57;;
35909;SDS011;22004;49.120;-0.200;2023-06-10T09:51:57;30.48;;;13.45;;
35909;SDS011;22004;49.120;-0.200;2023-06-10T09:54:23;30.63;;;12.93;;
35909;SDS011;22004;49.120;-0.200;2023-06-10T09:56:48;39.15;;;13.57;;
35909;SDS011;22004;49.120;-0.200;2023-06-10T09:59:16;33.25;;;13.98;;
35909;SDS011;22004;49.120;-0.200;2023-06-10T10:01:54;32.70;;;13.00;;
35909;SDS011;22004;49.120;-0.200;2023-06-10T10:04:24;29.08;;;13.00;;
35909;SDS011;22004;49.120;-0.200;2023-06-10T10:06:50;31.92;;;13.00;;
35909;SDS011;22004;49.120;-0.200;2023-06-10T10:09:15;27.27;;;12.80;;
35909;SDS011;22004;49.120;-0.200;2023-06-10T10:11:41;26.67;;;12.63;;
35909;SDS011;22004;49.120;-0.200;2023-06-10T10:14:09;32.38;;;12.30;;
35909;SDS011;22004;49.120;-0.200;2023-06-10T10:16:40;28.92;;;11.93;;
35909;SDS011;22004;49.120;-0.200;2023-06-10T10:22:26;25.48;;;12.10;;
35909;SDS011;22004;49.120;-0.200;2023-06-10T10:24:57;26.30;;;11.85;;
35909;SDS011;22004;49.120;-0.200;2023-06-10T10:27:27;29.08;;;13.07;;
35909;SDS011;22004;49.120;-0.200;2023-06-10T10:29:54;23.90;;;12.18;;
35909;SDS011;22004;49.120;-0.200;2023-06-10T10:32:27;27.05;;;11.20;;
35909;SDS011;22004;49.120;-0.200;2023-06-10T10:37:37;22.25;;;11.95;;
35909;SDS011;22004;49.120;-0.200;2023-06-10T10:40:04;27.38;;;11.57;;
35909;SDS011;22004;49.120;-0.200;2023-06-10T10:42:31;20.92;;;10.10;;
35909;SDS011;22004;49.120;-0.200;2023-06-10T10:44:57;25.08;;;10.75;;
35909;SDS011;22004;49.120;-0.200;2023-06-10T10:47:25;24.55;;;10.43;;
35909;SDS011;22004;49.120;-0.200;2023-06-10T10:49:54;20.17;;;9.88;;
35909;SDS011;22004;49.120;-0.200;2023-06-10T10:52:20;19.73;;;9.80;;
35909;SDS011;22004;49.120;-0.200;2023-06-10T10:54:45;21.77;;;9.93;;
35909;SDS011;22004;49.120;-0.200;2023-06-10T10:57:12;22.60;;;9.90;;
35909;SDS011;22004;49.120;-0.200;2023-06-10T11:04:58;18.52;;;10.00;;
35909;SDS011;22004;49.120;-0.200;2023-06-10T11:07:27;25.00;;;10.38;;
35909;SDS011;22004;49.120;-0.200;2023-06-10T11:09:58;20.13;;;9.50;;
35909;SDS011;22004;49.120;-0.200;2023-06-10T11:12:41;24.13;;;9.48;;
35909;SDS011;22004;49.120;-0.200;2023-06-10T11:15:22;18.13;;;9.27;;
35909;SDS011;22004;49.120;-0.200;2023-06-10T11:18:08;22.42;;;10.13;;
35909;SDS011;22004;49.120;-0.200;2023-06-10T11:26:43;22.08;;;10.65;;
35909;SDS011;22004;49.120;-0.200;2023-06-10T11:29:11;18.17;;;9.65;;
35909;SDS011;22004;49.120;-0.200;2023-06-10T11:31:31;21.83;;;10.05;;
35909;SDS011;22004;49.120;-0.200;2023-06-10T11:33:58;70.07;;;21.45;;
35909;SDS011;22004;49.120;-0.200;2023-06-10T11:36:25;76.43;;;21.48;;
35909;SDS011;22004;49.120;-0.200;2023-06-10T11:38:53;67.72;;;21.80;;
35909;SDS011;22004;49.120;-0.200;2023-06-10T11:41:21;60.88;;;22.17;;
35909;SDS011;22004;49.120;-0.200;2023-06-10T11:43:50;36.15;;;16.33;;
35909;SDS011;22004;49.120;-0.200;2023-06-10T11:46:15;46.63;;;19.42;;
35909;SDS011;22004;49.120;-0.200;2023-06-10T11:48:51;58.20;;;28.52;;
35909;SDS011;22004;49.120;-0.200;2023-06-10T11:51:17;69.10;;;35.05;;
35909;SDS011;22004;49.120;-0.200;2023-06-10T11:53:47;58.95;;;33.70;;
35909;SDS011;22004;49.120;-0.200;2023-06-10T11:56:13;40.70;;;23.45;;
35909;SDS011;22004;49.120;-0.200;2023-06-10T11:58:45;45.78;;;26.08;;
35909;SDS011;22004;49.120;-0.200;2023-06-10T12:01:19;43.05;;;25.63;;
35909;SDS011;22004;49.120;-0.200;2023-06-10T12:03:56;41.53;;;23.05;;
35909;SDS011;22004;49.120;-0.200;2023-06-10T12:06:22;43.00;;;22.95;;
35909;SDS011;22004;49.120;-0.200;2023-06-10T12:08:47;54.65;;;24.58;;
35909;SDS011;22004;49.120;-0.200;2023-06-10T12:11:12;68.88;;;28.80;;
35909;SDS011;22004;49.120;-0.200;2023-06-10T12:13:38;73.32;;;29.77;;
35909;SDS011;22004;49.120;-0.200;2023-06-10T12:16:13;89.28;;;31.92;;
35909;SDS011;22004;49.120;-0.200;2023-06-10T12:18:38;80.53;;;29.83;;
35909;SDS011;22004;49.120;-0.200;2023-06-10T12:21:15;81.05;;;34.40;;
35909;SDS011;22004;49.120;-0.200;2023-06-10T12:24:01;100.97;;;37.22;;
35909;SDS011;22004;49.120;-0.200;2023-06-10T12:26:37;100.70;;;34.60;;
35909;SDS011;22004;49.120;-0.200;2023-06-10T12:29:22;88.55;;;36.22;;
35909;SDS011;22004;49.120;-0.200;2023-06-10T12:31:56;95.50;;;38.00;;
35909;SDS011;22004;49.120;-0.200;2023-06-10T12:34:31;80.97;;;32.60;;
35909;SDS011;22004;49.120;-0.200;2023-06-10T12:37:02;93.18;;;37.78;;
35909;SDS011;22004;49.120;-0.200;2023-06-10T12:39:29;83.07;;;36.58;;
35909;SDS011;22004;49.120;-0.200;2023-06-10T12:41:56;97.45;;;40.85;;
35909;SDS011;22004;49.120;-0.200;2023-06-10T12:44:29;92.97;;;41.00;;
35909;SDS011;22004;49.120;-0.200;2023-06-10T12:46:55;95.43;;;38.95;;
35909;SDS011;22004;49.120;-0.200;2023-06-10T12:49:20;93.68;;;37.58;;
35909;SDS011;22004;49.120;-0.200;2023-06-10T12:51:46;76.63;;;33.17;;
35909;SDS011;22004;49.120;-0.200;2023-06-10T12:54:12;87.88;;;33.25;;
35909;SDS011;22004;49.120;-0.200;2023-06-10T12:56:38;87.03;;;36.13;;
35909;SDS011;22004;49.120;-0.200;2023-06-10T12:59:03;73.63;;;29.88;;
35909;SDS011;22004;49.120;-0.200;2023-06-10T13:01:29;65.20;;;26.25;;
35909;SDS011;22004;49.120;-0.200;2023-06-10T13:03:56;63.03;;;25.95;;
35909;SDS011;22004;49.120;-0.200;2023-06-10T13:06:21;72.50;;;29.13;;
35909;SDS011;22004;49.120;-0.200;2023-06-10T13:08:47;54.65;;;24.85;;
35909;SDS011;22004;49.120;-0.200;2023-06-10T13:11:12;65.60;;;27.88;;
35909;SDS011;22004;49.120;-0.200;2023-06-10T13:13:37;61.45;;;27.23;;
35909;SDS011;22004;49.120;-0.200;2023-06-10T13:16:03;49.03;;;23.88;;
35909;SDS011;22004;49.120;-0.200;2023-06-10T13:18:28;50.58;;;24.25;;
35909;SDS011;22004;49.120;-0.200;2023-06-10T13:20:54;45.97;;;21.73;;
35909;SDS011;22004;49.120;-0.200;2023-06-10T13:23:19;62.05;;;23.65;;
35909;SDS011;22004;49.120;-0.200;2023-06-10T13:25:44;63.90;;;22.88;;
35909;SDS011;22004;49.120;-0.200;2023-06-10T13:28:10;45.55;;;22.08;;
35909;SDS011;22004;49.120;-0.200;2023-06-10T13:30:36;61.03;;;22.98;;
35909;SDS011;22004;49.120;-0.200;2023-06-10T13:33:02;63.47;;;22.88;;
35909;SDS011;22004;49.120;-0.200;2023-06-10T13:35:27;52.45;;;24.35;;
35909;SDS011;22004;49.120;-0.200;2023-06-10T13:37:52;63.90;;;25.38;;
35909;SDS011;22004;49.120;-0.200;2023-06-10T13:40:18;47.25;;;22.30;;
35909;SDS011;22004;49.120;-0.200;2023-06-10T13:42:44;54.13;;;23.27;;
35909;SDS011;22004;49.120;-0.200;2023-06-10T13:45:11;48.47;;;23.17;;
35909;SDS011;22004;49.120;-0.200;2023-06-10T13:47:36;52.35;;;22.75;;
35909;SDS011;22004;49.120;-0.200;2023-06-10T13:50:01;54.50;;;24.75;;
35909;SDS011;22004;49.120;-0.200;2023-06-10T13:52:27;59.22;;;24.05;;
35909;SDS011;22004;49.120;-0.200;2023-06-10T13:54:52;47.47;;;23.27;;
35909;SDS011;22004;49.120;-0.200;2023-06-10T13:57:18;52.95;;;22.83;;
35909;SDS011;22004;49.120;-0.200;2023-06-10T13:59:43;61.22;;;23.98;;
35909;SDS011;22004;49.120;-0.200;2023-06-10T14:02:09;53.97;;;21.67;;
35909;SDS011;22004;49.120;-0.200;2023-06-10T14:04:34;45.45;;;21.50;;
35909;SDS011;22004;49.120;-0.200;2023-06-10T14:06:59;54.03;;;21.33;;
35909;SDS011;22004;49.120;-0.200;2023-06-10T14:09:25;54.90;;;22.90;;
35909;SDS011;22004;49.120;-0.200;2023-06-10T14:11:51;45.78;;;23.85;;
35909;SDS011;22004;49.120;-0.200;2023-06-10T14:14:16;48.75;;;23.35;;
35909;SDS011;22004;49.120;-0.200;2023-06-10T14:16:42;58.90;;;25.15;;
35909;SDS011;22004;49.120;-0.200;2023-06-10T14:19:07;62.53;;;26.88;;
35909;SDS011;22004;49.120;-0.200;2023-06-10T14:21:33;69.40;;;28.98;;
35909;SDS011;22004;49.120;-0.200;2023-06-10T14:23:58;56.42;;;25.63;;
35909;SDS011;22004;49.120;-0.200;2023-06-10T14:26:23;51.75;;;24.55;;
35909;SDS011;22004;49.120;-0.200;2023-06-10T14:28:49;54.97;;;24.42;;